Time;durP1;ratioP1;P1;durP2;ratioP2;P2;SDS_P1;SDS_P2;PMS_P1;PMS_P2;Temp;Humidity;BMP_temperature;BMP_pressure;BME280_temperature;BME280_humidity;BME280_pressure;Samples;Min_cycle;Max_cycle;Signal;HPM_P1;HPM_P2
2022/07/20 00:00:17;;;;;;;12.73;1.88;;;;;;;22.88;58.71;100808.59;2104775;28;20097;-74
2022/07/20 00:01:40;;;;;;;7.60;1.10;;;;;;;22.89;58.66;100803.16;2104805;28;20076;-74
2022/07/20 00:03:04;;;;;;;7.32;1.20;;;;;;;22.91;58.72;100800.38;2102303;28;20081;-73
2022/07/20 00:04:26;;;;;;;9.02;1.60;;;;;;;22.91;58.68;100806.66;2104515;28;20125;-73
2022/07/20 00:05:49;;;;;;;11.00;1.27;;;;;;;22.90;58.72;100798.66;2102087;28;20055;-73
2022/07/20 00:07:11;;;;;;;5.60;1.60;;;;;;;22.90;58.69;100802.22;2102126;28;20082;-73
2022/07/20 00:11:53;;;;;;;6.13;1.20;;;;;;;22.90;58.71;100809.41;2104145;28;20090;-73
2022/07/20 00:13:17;;;;;;;11.13;1.60;;;;;;;22.93;58.70;100801.22;2093396;28;20095;-74
2022/07/20 00:14:40;;;;;;;10.77;1.40;;;;;;;22.93;58.71;100802.09;2096278;28;20139;-73
2022/07/20 00:16:02;;;;;;;7.80;1.38;;;;;;;22.92;58.70;100800.34;2102153;28;20063;-73
2022/07/20 00:17:25;;;;;;;10.32;1.73;;;;;;;22.93;58.64;100796.72;2101636;28;20087;-73
2022/07/20 00:18:48;;;;;;;5.53;1.23;;;;;;;22.92;58.80;100794.94;2101601;28;20824;-73
2022/07/20 00:20:13;;;;;;;8.95;1.30;;;;;;;22.94;58.91;100809.25;2102124;28;20063;-73
2022/07/20 00:21:35;;;;;;;9.38;1.40;;;;;;;22.94;58.96;100803.88;2093873;28;20144;-73
2022/07/20 00:22:58;;;;;;;9.57;1.50;;;;;;;22.96;58.96;100807.41;2099567;28;20110;-72
2022/07/20 00:24:21;;;;;;;14.52;1.92;;;;;;;22.95;58.95;100804.75;2102184;28;20052;-73
2022/07/20 00:25:44;;;;;;;9.90;1.27;;;;;;;22.95;58.95;100805.63;2101655;28;20055;-73
2022/07/20 00:27:06;;;;;;;10.60;1.45;;;;;;;22.94;58.92;100805.69;2102050;28;20044;-74
2022/07/20 00:28:28;;;;;;;8.68;1.60;;;;;;;22.92;58.92;100804.84;2102160;28;20501;-73
2022/07/20 00:29:50;;;;;;;9.80;1.58;;;;;;;22.92;59.20;100804.84;2101816;28;20048;-74
2022/07/20 00:31:13;;;;;;;10.70;1.60;;;;;;;22.93;59.26;100798.53;2102033;28;20047;-73
2022/07/20 00:32:39;;;;;;;9.15;1.70;;;;;;;22.96;59.35;100801.13;2101884;28;20098;-73
2022/07/20 00:34:01;;;;;;;11.82;1.67;;;;;;;22.98;59.52;100796.53;2102241;28;20130;-73
2022/07/20 00:35:23;;;;;;;8.82;1.40;;;;;;;23.00;59.50;100797.38;2101804;28;20147;-73
2022/07/20 00:36:45;;;;;;;8.10;1.23;;;;;;;23.00;59.67;100789.31;2102069;28;20074;-74
2022/07/20 00:38:08;;;;;;;5.07;1.30;;;;;;;23.00;59.70;100798.25;2101696;28;20032;-73
2022/07/20 00:39:30;;;;;;;6.13;1.02;;;;;;;23.01;59.84;100794.63;2101737;28;20145;-74
2022/07/20 00:40:52;;;;;;;6.43;1.25;;;;;;;23.04;60.02;100788.25;2101985;28;20473;-73
2022/07/20 00:42:14;;;;;;;7.22;1.23;;;;;;;23.08;60.04;100799.81;2101836;28;20043;-74
2022/07/20 00:43:59;;;;;;;10.45;1.25;;;;;;;23.10;60.00;100797.94;2093668;28;20542;-73
2022/07/20 00:45:23;;;;;;;8.23;1.88;;;;;;;23.11;59.97;100797.00;2104564;28;20405;-74
2022/07/20 00:46:47;;;;;;;9.57;1.52;;;;;;;23.11;59.92;100789.78;2101782;28;20071;-74
2022/07/20 00:48:11;;;;;;;8.65;1.45;;;;;;;23.14;60.06;100781.63;2093688;28;20056;-73
2022/07/20 00:49:33;;;;;;;8.25;1.30;;;;;;;23.15;60.13;100788.78;2107900;28;20637;-73
2022/07/20 00:50:56;;;;;;;7.00;1.40;;;;;;;23.16;60.16;100792.34;2096235;28;20506;-74
2022/07/20 00:52:18;;;;;;;7.25;1.20;;;;;;;23.18;60.13;100796.72;2093560;28;20037;-74
2022/07/20 00:53:40;;;;;;;5.88;1.35;;;;;;;23.19;60.08;100784.13;2093168;28;20452;-73
2022/07/20 00:55:02;;;;;;;8.10;1.83;;;;;;;23.18;60.15;100787.75;2090890;28;20066;-74
2022/07/20 00:56:24;;;;;;;9.63;2.17;;;;;;;23.19;60.33;100787.72;2101863;28;20082;-73
2022/07/20 00:57:46;;;;;;;9.40;1.25;;;;;;;23.20;60.20;100786.78;2101856;28;20043;-73
2022/07/20 00:59:10;;;;;;;7.75;1.40;;;;;;;23.21;60.32;100791.25;2104366;28;20052;-74
2022/07/20 01:00:33;;;;;;;8.68;1.50;;;;;;;23.23;60.37;100780.41;2101980;28;20051;-73
2022/07/20 01:01:56;;;;;;;6.45;1.20;;;;;;;23.22;60.20;100784.91;2104501;28;20170;-73
2022/07/20 01:03:19;;;;;;;9.10;1.10;;;;;;;23.24;60.21;100787.53;2101841;28;20097;-73
2022/07/20 01:04:41;;;;;;;11.85;1.60;;;;;;;23.27;60.17;100785.63;2101772;28;20460;-73
2022/07/20 01:06:04;;;;;;;8.50;1.13;;;;;;;23.30;60.12;100790.03;2101919;28;20063;-74
2022/07/20 01:07:27;;;;;;;8.48;1.40;;;;;;;23.31;60.13;100789.06;2101813;28;20048;-74
2022/07/20 01:08:49;;;;;;;8.43;1.20;;;;;;;23.31;60.09;100789.06;2101868;28;20501;-74
2022/07/20 01:10:12;;;;;;;10.55;1.10;;;;;;;23.31;60.14;100791.78;2110406;28;20054;-74
2022/07/20 01:11:35;;;;;;;7.65;1.98;;;;;;;23.34;59.94;100786.28;2098653;28;20135;-73
2022/07/20 01:12:58;;;;;;;3.95;0.95;;;;;;;23.34;59.92;100784.47;2099453;28;20052;-74
2022/07/20 01:14:21;;;;;;;6.47;1.33;;;;;;;23.36;59.94;100797.91;2104278;28;20055;-74
2022/07/20 01:15:45;;;;;;;4.82;1.10;;;;;;;23.36;59.73;100795.19;2110165;28;20505;-74
2022/07/20 01:17:08;;;;;;;11.45;1.00;;;;;;;23.34;59.85;100792.56;2104580;28;20079;-74
2022/07/20 01:18:31;;;;;;;8.35;1.42;;;;;;;23.37;59.91;100783.47;2105399;28;20048;-74
2022/07/20 01:19:53;;;;;;;7.45;1.35;;;;;;;23.37;59.90;100797.81;2105957;28;20051;-73
2022/07/20 01:21:18;;;;;;;10.82;1.50;;;;;;;23.37;59.86;100795.13;2103469;28;20048;-74
2022/07/20 01:22:39;;;;;;;5.72;1.33;;;;;;;23.37;59.66;100796.94;2103487;28;20099;-74
2022/07/20 01:24:02;;;;;;;8.20;1.30;;;;;;;23.36;59.68;100785.31;2102990;28;20459;-74
2022/07/20 01:25:24;;;;;;;7.90;1.10;;;;;;;23.35;59.79;100780.84;2106054;28;20126;-73
2022/07/20 01:26:47;;;;;;;7.80;1.65;;;;;;;23.36;59.75;100784.44;2097671;28;20107;-74
2022/07/20 01:28:11;;;;;;;9.07;1.30;;;;;;;23.38;59.85;100793.31;2103098;28;20074;-74
2022/07/20 01:29:34;;;;;;;6.95;1.45;;;;;;;23.38;59.52;100788.81;2105706;28;20508;-73
2022/07/20 01:30:55;;;;;;;7.03;1.33;;;;;;;23.38;59.71;100799.59;2106114;28;20052;-74
2022/07/20 01:32:18;;;;;;;11.65;2.20;;;;;;;23.38;59.43;100796.00;2097408;28;20074;-74
2022/07/20 01:33:39;;;;;;;8.65;1.55;;;;;;;23.37;59.53;100800.50;2103267;28;20044;-74
2022/07/20 01:35:02;;;;;;;7.95;1.23;;;;;;;23.34;59.61;100795.25;2105998;28;20055;-74
2022/07/20 01:36:26;;;;;;;8.48;2.00;;;;;;;23.35;59.67;100798.81;2097101;28;20556;-73
2022/07/20 01:37:47;;;;;;;6.72;1.40;;;;;;;23.33;59.85;100803.38;2095024;28;20052;-73
2022/07/20 01:39:10;;;;;;;11.30;1.58;;;;;;;23.32;59.75;100801.63;2103270;28;20523;-73
2022/07/20 01:40:32;;;;;;;7.95;1.58;;;;;;;23.31;59.86;100798.03;2105636;28;20056;-74
2022/07/20 01:41:55;;;;;;;10.38;1.50;;;;;;;23.30;60.09;100800.81;2105976;28;20233;-73
2022/07/20 01:43:16;;;;;;;9.35;1.63;;;;;;;23.30;60.26;100800.81;2096849;28;20068;-73
2022/07/20 01:44:38;;;;;;;11.80;1.90;;;;;;;23.29;60.21;100810.72;2102936;28;20092;-73
2022/07/20 01:46:00;;;;;;;5.93;1.40;;;;;;;23.31;60.34;100810.63;2105743;28;20134;-74
2022/07/20 01:47:22;;;;;;;9.35;1.88;;;;;;;23.30;60.34;100800.81;2105781;28;20048;-74
2022/07/20 01:48:45;;;;;;;9.30;1.45;;;;;;;23.31;60.44;100799.84;2110512;28;20128;-74
2022/07/20 01:50:07;;;;;;;4.75;1.13;;;;;;;23.32;60.33;100799.81;2105668;28;20166;-73
2022/07/20 01:51:31;;;;;;;8.77;1.40;;;;;;;23.34;60.59;100788.97;2111470;28;20052;-73
2022/07/20 01:52:54;;;;;;;5.45;1.38;;;;;;;23.34;60.53;100802.44;2105664;28;20149;-73
2022/07/20 01:54:16;;;;;;;14.48;1.63;;;;;;;23.36;60.60;100800.59;2111672;28;20428;-73
2022/07/20 01:55:38;;;;;;;9.40;1.20;;;;;;;23.37;60.59;100805.91;2097336;28;20074;-73
2022/07/20 01:57:00;;;;;;;9.45;1.80;;;;;;;23.37;60.56;100803.22;2108394;28;20497;-73
2022/07/20 01:58:23;;;;;;;11.98;1.50;;;;;;;23.37;60.63;100807.72;2105581;28;20055;-74
2022/07/20 01:59:45;;;;;;;10.65;1.23;;;;;;;23.38;60.51;100796.00;2111553;28;20142;-74
2022/07/20 02:01:08;;;;;;;11.70;1.42;;;;;;;23.40;60.60;100807.63;2105713;28;20136;-73
2022/07/20 02:02:29;;;;;;;7.75;1.75;;;;;;;23.39;60.62;100804.03;2111393;28;20087;-74
2022/07/20 02:03:52;;;;;;;6.63;1.63;;;;;;;23.38;60.82;100806.78;2105275;28;20044;-73
2022/07/20 02:05:13;;;;;;;10.82;2.03;;;;;;;23.39;60.70;100800.47;2105681;28;20138;-73
2022/07/20 02:06:37;;;;;;;12.73;1.50;;;;;;;23.40;60.84;100796.84;2102989;28;20044;-73
2022/07/20 02:08:00;;;;;;;5.85;1.45;;;;;;;23.41;60.97;100806.69;2103048;28;20506;-73
2022/07/20 02:09:22;;;;;;;6.80;1.25;;;;;;;23.42;60.79;100805.75;2111549;28;20130;-73
2022/07/20 02:10:44;;;;;;;5.82;1.25;;;;;;;23.42;60.98;100806.63;2105564;28;20067;-74
2022/07/20 02:12:06;;;;;;;8.95;1.27;;;;;;;23.43;60.91;100802.13;2111328;28;20067;-73
2022/07/20 02:13:29;;;;;;;6.18;1.25;;;;;;;23.43;60.93;100804.81;2105679;28;20101;-73
2022/07/20 02:14:51;;;;;;;8.38;1.70;;;;;;;23.45;61.06;100805.63;2111603;28;20539;-73
2022/07/20 02:16:17;;;;;;;9.57;1.25;;;;;;;23.47;61.04;100798.41;2105373;28;20052;-73
2022/07/20 02:17:39;;;;;;;11.48;1.63;;;;;;;23.47;61.14;100801.09;2103449;28;20143;-73
2022/07/20 02:19:01;;;;;;;12.07;1.80;;;;;;;23.49;61.12;100807.31;2111533;28;20044;-73
2022/07/20 02:20:23;;;;;;;9.95;2.15;;;;;;;23.51;61.32;100810.81;2105493;28;20054;-73
2022/07/20 02:21:48;;;;;;;6.07;1.65;;;;;;;23.52;61.33;100814.41;2103019;28;20083;-73
2022/07/20 02:23:10;;;;;;;7.55;1.58;;;;;;;23.50;61.28;100811.75;2103206;28;20043;-73
2022/07/20 02:24:33;;;;;;;6.35;1.50;;;;;;;23.50;61.27;100803.66;2111150;28;20047;-73
2022/07/20 02:25:54;;;;;;;8.38;1.40;;;;;;;23.49;61.58;100814.53;2097226;28;20044;-73
2022/07/20 02:27:17;;;;;;;6.63;1.50;;;;;;;23.48;61.52;100807.38;2100221;28;20044;-73
2022/07/20 02:28:39;;;;;;;8.38;1.45;;;;;;;23.47;61.44;100814.56;2102671;28;20134;-73
2022/07/20 02:30:02;;;;;;;8.75;1.95;;;;;;;23.47;61.44;100803.78;2101818;28;20048;-73
2022/07/20 02:31:24;;;;;;;10.13;1.58;;;;;;;23.45;61.54;100809.19;2097226;28;20044;-72
2022/07/20 02:32:46;;;;;;;12.77;2.30;;;;;;;23.44;61.54;100814.63;2108043;28;20527;-73
2022/07/20 02:34:08;;;;;;;8.88;1.75;;;;;;;23.42;61.53;100809.34;2097084;28;20076;-73
2022/07/20 02:35:30;;;;;;;10.52;1.58;;;;;;;23.41;61.59;100822.84;2108702;28;20052;-73
2022/07/20 02:36:54;;;;;;;8.05;1.40;;;;;;;23.40;61.56;100816.59;2105249;28;20488;-73
2022/07/20 02:38:15;;;;;;;6.57;1.60;;;;;;;23.41;61.63;100822.84;2102786;28;20135;-73
2022/07/20 02:39:38;;;;;;;9.25;1.67;;;;;;;23.41;61.73;100821.03;2093950;28;20055;-73
2022/07/20 02:41:01;;;;;;;5.15;1.55;;;;;;;23.41;61.66;100817.47;2108354;28;20047;-73
2022/07/20 02:42:23;;;;;;;11.48;2.47;;;;;;;23.42;61.86;100817.41;2105459;28;20048;-73
2022/07/20 02:43:46;;;;;;;10.93;1.80;;;;;;;23.42;61.91;100814.72;2111024;28;20047;-74
2022/07/20 02:45:08;;;;;;;11.55;1.80;;;;;;;23.43;61.72;100823.69;2105214;28;20040;-74
2022/07/20 02:46:31;;;;;;;9.50;1.58;;;;;;;23.43;61.86;100821.84;2102594;28;20513;-73
2022/07/20 02:47:52;;;;;;;7.57;1.80;;;;;;;23.44;61.89;100826.31;2110971;28;20070;-73
2022/07/20 02:49:15;;;;;;;9.32;1.67;;;;;;;23.43;61.87;100829.94;2096935;28;20110;-73
2022/07/20 02:50:41;;;;;;;10.82;1.55;;;;;;;23.44;62.05;100830.81;2097121;28;20075;-73
2022/07/20 02:52:05;;;;;;;9.43;1.55;;;;;;;23.44;62.16;100839.78;2094519;28;20048;-74
2022/07/20 02:53:27;;;;;;;7.15;1.40;;;;;;;23.44;62.13;100836.19;2102355;28;20138;-73
2022/07/20 02:54:49;;;;;;;7.60;1.80;;;;;;;23.44;62.31;100825.41;2096981;28;20436;-73
2022/07/20 02:56:11;;;;;;;11.35;1.42;;;;;;;23.46;62.21;100831.66;2085945;28;20053;-73
2022/07/20 02:57:33;;;;;;;10.45;1.63;;;;;;;23.47;62.34;100836.13;2091553;28;20079;-73
2022/07/20 02:58:55;;;;;;;12.15;1.52;;;;;;;23.47;62.26;100838.84;2085874;28;20407;-73
2022/07/20 03:00:17;;;;;;;10.02;1.95;;;;;;;23.47;62.22;100830.75;2099486;28;20383;-74
2022/07/20 03:01:39;;;;;;;11.20;1.63;;;;;;;23.46;62.22;100837.03;2099659;28;20140;-73
2022/07/20 03:03:01;;;;;;;6.03;1.33;;;;;;;23.45;62.19;100843.34;2096701;28;20040;-73
2022/07/20 03:04:24;;;;;;;8.95;1.45;;;;;;;23.44;62.17;100846.97;2102502;28;20048;-73
2022/07/20 03:05:46;;;;;;;9.82;2.35;;;;;;;23.42;62.19;100843.47;2096774;28;20052;-73
2022/07/20 03:07:09;;;;;;;11.70;1.80;;;;;;;23.41;62.25;100839.91;2102309;28;20097;-73
2022/07/20 03:08:31;;;;;;;10.70;1.65;;;;;;;23.38;62.16;100850.78;2096601;28;20121;-73
2022/07/20 03:09:52;;;;;;;8.45;1.55;;;;;;;23.37;62.17;100842.75;2102626;28;20086;-73
2022/07/20 03:11:15;;;;;;;8.63;1.88;;;;;;;23.35;62.11;100842.81;2096897;28;20072;-73
2022/07/20 03:12:37;;;;;;;15.13;2.25;;;;;;;23.35;61.68;100839.25;2085917;28;20112;-73
2022/07/20 03:13:59;;;;;;;;;;;;;;;23.32;61.36;100834.84;2091817;28;20060;-74
2022/07/20 03:15:21;;;;;;;10.85;1.95;;;;;;;23.30;61.55;100842.09;2094096;28;19947;-73
2022/07/20 03:16:44;;;;;;;7.65;1.65;;;;;;;23.29;61.12;100840.34;2096517;28;20048;-74
2022/07/20 03:18:06;;;;;;;12.02;1.63;;;;;;;23.29;60.91;100842.16;2096620;28;20048;-74
2022/07/20 03:19:28;;;;;;;10.52;2.35;;;;;;;23.28;60.86;100837.69;2102475;28;20715;-73
2022/07/20 03:20:50;;;;;;;8.80;1.85;;;;;;;23.31;60.64;100845.66;2096305;28;20040;-74
2022/07/20 03:22:13;;;;;;;9.00;1.40;;;;;;;23.34;60.43;100837.47;2085957;28;20060;-73
2022/07/20 03:23:36;;;;;;;5.93;1.48;;;;;;;23.36;60.25;100841.00;2099589;28;20036;-73
2022/07/20 03:24:57;;;;;;;8.23;1.75;;;;;;;23.39;60.39;100838.19;2102198;28;20044;-73
2022/07/20 03:26:21;;;;;;;10.30;1.80;;;;;;;23.41;60.12;100837.22;2102031;28;20185;-73
2022/07/20 03:27:42;;;;;;;6.20;1.15;;;;;;;23.42;60.14;100835.41;2102351;28;20048;-73
2022/07/20 03:29:05;;;;;;;7.63;1.63;;;;;;;23.45;60.40;100838.84;2102058;28;20089;-73
2022/07/20 03:30:29;;;;;;;7.45;1.55;;;;;;;23.48;60.21;100840.59;2102146;28;20144;-73
2022/07/20 03:31:51;;;;;;;10.48;1.60;;;;;;;23.50;60.16;100841.41;2100161;28;20090;-73
2022/07/20 03:33:14;;;;;;;11.10;1.65;;;;;;;23.51;60.02;100837.78;2093548;28;20063;-73
2022/07/20 03:34:36;;;;;;;7.57;1.70;;;;;;;23.53;59.97;100840.41;2091546;28;20129;-74
2022/07/20 03:35:58;;;;;;;6.03;1.45;;;;;;;23.56;60.20;100840.31;2090042;28;20044;-74
2022/07/20 03:37:22;;;;;;;8.65;1.40;;;;;;;23.62;60.39;100840.09;2099557;28;20078;-73
2022/07/20 03:38:45;;;;;;;8.15;1.35;;;;;;;23.67;60.51;100843.50;2102398;28;20443;-73
2022/07/20 03:40:07;;;;;;;8.10;1.48;;;;;;;23.70;60.76;100830.75;2104715;28;20044;-73
2022/07/20 03:41:30;;;;;;;10.85;1.73;;;;;;;23.74;60.69;100835.13;2110133;28;20047;-73
2022/07/20 03:42:52;;;;;;;7.22;1.50;;;;;;;23.79;60.62;100849.31;2107181;28;20080;-73
2022/07/20 03:44:14;;;;;;;12.57;2.67;;;;;;;23.86;60.61;100835.59;2112658;28;20561;-74
2022/07/20 03:45:37;;;;;;;8.85;1.58;;;;;;;23.91;60.55;100841.69;2104749;28;20582;-74
2022/07/20 03:46:58;;;;;;;12.90;1.73;;;;;;;23.95;60.76;100840.66;2104887;28;20051;-73
2022/07/20 03:48:21;;;;;;;10.75;2.10;;;;;;;24.01;60.76;100835.91;2103285;28;20039;-73
2022/07/20 03:49:42;;;;;;;15.25;2.08;;;;;;;24.04;60.39;100841.16;2110181;28;20059;-73
2022/07/20 03:51:05;;;;;;;11.48;1.30;;;;;;;24.10;60.27;100848.13;2104982;28;20040;-73
2022/07/20 03:52:28;;;;;;;8.30;1.52;;;;;;;24.14;60.18;100847.09;2104637;28;20416;-73
2022/07/20 03:53:50;;;;;;;8.60;1.45;;;;;;;24.22;60.16;100847.69;2107664;28;20052;-73
2022/07/20 03:55:13;;;;;;;11.55;2.35;;;;;;;24.29;59.83;100856.41;2110678;28;20078;-73
2022/07/20 03:56:39;;;;;;;8.73;1.50;;;;;;;24.36;59.67;100848.00;2103768;28;20208;-74
2022/07/20 03:58:02;;;;;;;6.45;1.25;;;;;;;24.44;59.57;100854.00;2109086;28;20135;-73
2022/07/20 03:59:23;;;;;;;11.27;1.98;;;;;;;24.54;59.09;100857.22;2110532;28;20067;-73
2022/07/20 04:00:46;;;;;;;8.80;1.58;;;;;;;24.62;58.78;100846.97;2110333;28;20078;-73
2022/07/20 04:02:09;;;;;;;9.98;2.20;;;;;;;24.72;58.81;100850.19;2110123;28;20039;-73
2022/07/20 04:03:30;;;;;;;7.95;2.13;;;;;;;24.80;58.38;100850.75;2101912;28;20761;-74
2022/07/20 04:04:52;;;;;;;14.45;1.40;;;;;;;24.87;58.56;100847.72;2115564;27;20050;-74
2022/07/20 04:06:15;;;;;;;7.13;1.60;;;;;;;24.98;58.26;100850.88;2112412;28;20039;-73
2022/07/20 04:07:39;;;;;;;12.93;1.60;;;;;;;25.14;57.92;100855.63;2110507;28;20050;-74
2022/07/20 04:09:02;;;;;;;7.85;1.42;;;;;;;25.24;57.67;100849.75;2110463;28;20573;-73
2022/07/20 04:10:24;;;;;;;9.48;1.60;;;;;;;25.39;57.49;100850.91;2110255;28;20075;-73
2022/07/20 04:11:46;;;;;;;15.15;2.17;;;;;;;25.50;57.42;100847.72;2110722;28;20142;-73
2022/07/20 04:13:08;;;;;;;9.70;1.40;;;;;;;25.54;57.18;100849.31;2110097;28;20642;-74
2022/07/20 04:14:29;;;;;;;9.00;2.10;;;;;;;25.62;57.09;100858.00;2110272;28;20055;-74
2022/07/20 04:15:52;;;;;;;5.10;1.20;;;;;;;25.73;57.32;100859.28;2109837;28;20075;-73
2022/07/20 04:17:15;;;;;;;8.40;1.52;;;;;;;25.86;56.96;100867.75;2110047;28;20063;-73
2022/07/20 04:18:37;;;;;;;7.15;1.25;;;;;;;25.96;57.01;100855.53;2110515;28;20654;-73
2022/07/20 04:20:00;;;;;;;7.88;1.33;;;;;;;25.99;56.74;100866.19;2110436;28;20044;-73
2022/07/20 04:21:22;;;;;;;10.88;1.90;;;;;;;25.93;56.59;100860.22;2112884;28;20075;-73
2022/07/20 04:22:46;;;;;;;8.00;1.55;;;;;;;25.88;56.51;100870.34;2110262;28;20402;-73
2022/07/20 04:24:09;;;;;;;8.57;1.60;;;;;;;25.84;56.91;100869.63;2101345;28;20082;-74
2022/07/20 04:25:31;;;;;;;5.57;1.13;;;;;;;25.85;56.97;100863.28;2107491;28;20075;-73
2022/07/20 04:26:53;;;;;;;5.30;1.95;;;;;;;25.90;56.83;100868.47;2101910;28;20381;-73
2022/07/20 04:28:16;;;;;;;9.50;2.05;;;;;;;25.94;56.64;100865.53;2107182;28;20047;-73
2022/07/20 04:29:37;;;;;;;9.20;1.50;;;;;;;25.99;56.61;100860.78;2101911;28;20052;-74
2022/07/20 04:31:00;;;;;;;9.85;2.28;;;;;;;26.12;56.74;100870.09;2098955;28;20597;-74
2022/07/20 04:32:22;;;;;;;10.10;1.45;;;;;;;26.27;56.29;100864.94;2099202;28;20102;-73
2022/07/20 04:33:45;;;;;;;14.88;1.67;;;;;;;26.32;56.04;100871.88;2099260;28;20629;-73
2022/07/20 04:35:09;;;;;;;10.80;1.52;;;;;;;26.33;55.89;100873.66;2110480;28;20067;-73
2022/07/20 04:36:31;;;;;;;10.15;1.92;;;;;;;26.24;55.84;100873.19;2112282;28;20051;-73
2022/07/20 04:37:55;;;;;;;6.88;1.42;;;;;;;26.22;55.88;100872.38;2101784;28;20072;-72
2022/07/20 04:39:18;;;;;;;11.07;1.85;;;;;;;26.22;55.61;100875.97;2110692;28;20062;-74
2022/07/20 04:40:40;;;;;;;8.60;1.30;;;;;;;26.20;55.70;100883.25;2110257;28;20048;-73
2022/07/20 04:42:02;;;;;;;9.43;1.48;;;;;;;26.17;55.50;100878.00;2110246;28;20077;-73
2022/07/20 04:43:25;;;;;;;11.20;1.60;;;;;;;26.30;55.52;100871.09;2110214;28;20047;-73
2022/07/20 04:44:48;;;;;;;8.05;1.45;;;;;;;26.46;54.85;100876.63;2110176;28;20125;-74
2022/07/20 04:46:10;;;;;;;7.00;1.67;;;;;;;26.62;54.66;100885.78;2101009;28;20585;-74
2022/07/20 04:47:32;;;;;;;9.15;1.30;;;;;;;26.79;54.30;100882.25;2099329;28;20048;-74
2022/07/20 04:48:54;;;;;;;11.05;1.73;;;;;;;27.03;53.84;100869.34;2095371;28;20048;-74
2022/07/20 04:50:17;;;;;;;8.13;1.58;;;;;;;27.13;53.22;100881.47;2093564;28;20052;-74
2022/07/20 04:51:39;;;;;;;6.35;1.50;;;;;;;27.33;52.78;100881.31;2101885;28;20040;-74
2022/07/20 04:53:03;;;;;;;6.38;1.23;;;;;;;27.70;52.13;100880.28;2095695;28;20056;-73
2022/07/20 04:54:25;;;;;;;8.80;1.98;;;;;;;28.09;51.38;100871.84;2103544;28;20154;-74
2022/07/20 04:55:48;;;;;;;10.77;2.03;;;;;;;28.44;50.64;100880.75;2097184;28;20498;-74
2022/07/20 04:57:10;;;;;;;7.80;1.42;;;;;;;28.74;49.77;100889.91;2086701;28;20044;-74
2022/07/20 04:58:32;;;;;;;5.70;1.67;;;;;;;29.03;49.41;100887.31;2092501;28;20469;-74
2022/07/20 04:59:54;;;;;;;9.65;1.17;;;;;;;29.27;48.53;100892.19;2103106;28;20048;-74
2022/07/20 05:01:16;;;;;;;5.93;1.10;;;;;;;29.49;48.06;100886.34;2097550;28;20056;-74
2022/07/20 05:02:39;;;;;;;5.18;1.30;;;;;;;29.71;47.39;100891.34;2094910;28;20055;-74
2022/07/20 05:04:01;;;;;;;5.78;1.52;;;;;;;29.75;46.83;100892.03;2095157;28;20045;-74
2022/07/20 05:05:24;;;;;;;6.80;1.45;;;;;;;29.61;47.00;100891.03;2097635;28;20048;-74
2022/07/20 05:06:46;;;;;;;7.10;1.60;;;;;;;29.76;46.52;100889.22;2086095;28;20075;-74
2022/07/20 05:08:10;;;;;;;9.95;1.88;;;;;;;29.56;46.80;100890.44;2092371;28;20135;-74
2022/07/20 05:09:33;;;;;;;9.10;1.38;;;;;;;29.46;47.21;100900.16;2094987;28;20044;-74
2022/07/20 05:10:55;;;;;;;9.05;1.60;;;;;;;29.68;46.52;100900.56;2095033;28;20481;-74
2022/07/20 05:12:21;;;;;;;4.10;0.95;;;;;;;29.67;46.70;100892.50;2095391;28;20057;-74
2022/07/20 05:13:42;;;;;;;8.45;2.58;;;;;;;29.46;46.98;100907.44;2102805;28;20505;-73
2022/07/20 05:15:05;;;;;;;7.45;1.38;;;;;;;29.15;47.55;100890.19;2097748;28;20052;-74
2022/07/20 05:16:28;;;;;;;6.57;1.38;;;;;;;28.92;48.12;100894.25;2096778;28;20143;-74
2022/07/20 05:17:50;;;;;;;6.68;2.08;;;;;;;28.59;48.68;100888.03;2094840;28;20048;-73
2022/07/20 05:19:13;;;;;;;12.07;1.92;;;;;;;28.41;49.10;100892.69;2095004;28;20067;-74
2022/07/20 05:20:35;;;;;;;5.07;1.13;;;;;;;28.62;48.65;100887.84;2097160;28;20565;-74
2022/07/20 05:21:57;;;;;;;8.95;1.73;;;;;;;28.92;47.90;100882.50;2103138;28;20084;-74
2022/07/20 05:23:22;;;;;;;7.97;1.70;;;;;;;29.31;47.15;100896.47;2097445;28;20041;-73
2022/07/20 05:24:45;;;;;;;7.72;1.80;;;;;;;29.89;46.29;100889.31;2103234;28;20143;-74
2022/07/20 05:26:07;;;;;;;11.25;1.63;;;;;;;30.39;44.91;100897.03;2094158;28;20078;-74
2022/07/20 05:27:30;;;;;;;7.18;2.33;;;;;;;30.63;44.29;100892.75;2100084;28;20036;-74
2022/07/20 05:28:54;;;;;;;8.13;1.40;;;;;;;30.41;44.83;100895.97;2103045;28;20561;-74
2022/07/20 05:30:16;;;;;;;8.70;1.52;;;;;;;30.53;44.76;100887.97;2103059;28;20047;-74
2022/07/20 05:31:39;;;;;;;6.13;1.23;;;;;;;30.87;44.18;100898.41;2103435;28;20055;-73
2022/07/20 05:33:00;;;;;;;6.00;1.10;;;;;;;31.10;43.59;100897.78;2102927;28;20083;-73
2022/07/20 05:34:23;;;;;;;6.57;1.98;;;;;;;31.23;43.11;100897.84;2102636;28;20055;-73
2022/07/20 05:35:45;;;;;;;8.23;1.75;;;;;;;31.35;42.92;100896.13;2111284;28;20133;-73
2022/07/20 05:37:07;;;;;;;;;;;;;;;31.42;42.73;100901.03;2106045;28;20052;-73
2022/07/20 05:38:31;;;;;;;11.18;1.70;;;;;;;31.72;42.73;100889.84;2106145;28;19970;-74
2022/07/20 05:39:53;;;;;;;6.72;1.40;;;;;;;31.98;41.93;100896.19;2111615;28;20405;-74
2022/07/20 05:41:16;;;;;;;10.48;1.67;;;;;;;32.25;41.60;100896.97;2111221;28;20058;-74
2022/07/20 05:42:37;;;;;;;7.63;1.25;;;;;;;32.58;41.05;100890.03;2097314;28;20055;-74
2022/07/20 05:44:00;;;;;;;10.48;1.95;;;;;;;32.73;40.49;100902.59;2100370;28;20048;-74
2022/07/20 05:45:22;;;;;;;7.10;1.92;;;;;;;32.79;40.08;100902.16;2103046;28;20529;-74
2022/07/20 05:46:45;;;;;;;7.00;1.33;;;;;;;32.94;40.14;100892.78;2094637;28;20072;-74
2022/07/20 05:48:10;;;;;;;9.68;1.38;;;;;;;33.06;39.59;100894.59;2102762;28;20383;-74
2022/07/20 05:49:32;;;;;;;7.32;1.58;;;;;;;33.20;39.61;100904.53;2094944;28;20037;-74
2022/07/20 05:50:55;;;;;;;8.60;1.52;;;;;;;33.33;39.30;100912.66;2103107;28;20093;-74
2022/07/20 05:52:16;;;;;;;11.40;2.17;;;;;;;33.48;39.08;100903.25;2103072;28;20048;-74
2022/07/20 05:53:40;;;;;;;;;;;;;;;33.25;39.03;100910.50;2102988;28;20055;-73
2022/07/20 05:55:02;;;;;;;8.90;1.70;;;;;;;33.19;39.57;100909.13;2103001;27;20021;-73
2022/07/20 05:56:25;;;;;;;7.05;1.33;;;;;;;33.27;39.25;100904.91;2108882;28;20146;-74
2022/07/20 05:57:47;;;;;;;9.10;1.70;;;;;;;33.39;38.98;100913.06;2105890;28;20139;-73
2022/07/20 05:59:10;;;;;;;9.02;1.98;;;;;;;33.59;38.62;100903.28;2097805;28;20097;-73
2022/07/20 06:00:33;;;;;;;3.25;1.00;;;;;;;33.60;38.45;100913.25;2099686;28;20071;-73
2022/07/20 06:01:55;;;;;;;7.13;1.48;;;;;;;33.28;38.94;100909.41;2095707;28;20071;-73
2022/07/20 06:03:18;;;;;;;7.85;1.60;;;;;;;33.31;39.11;100901.81;2090797;28;20487;-73
2022/07/20 06:04:39;;;;;;;12.82;1.80;;;;;;;33.38;38.79;100894.00;2096781;28;20048;-73
2022/07/20 06:06:02;;;;;;;6.78;1.45;;;;;;;33.41;38.60;100910.22;2105570;28;20032;-73
2022/07/20 06:07:24;;;;;;;8.98;1.58;;;;;;;33.44;38.54;100907.22;2110270;28;20101;-73
2022/07/20 06:08:48;;;;;;;7.07;1.85;;;;;;;33.27;38.45;100899.44;2109903;28;20043;-73
2022/07/20 06:10:10;;;;;;;9.13;1.38;;;;;;;33.15;38.73;100903.94;2110268;28;20125;-74
2022/07/20 06:11:34;;;;;;;11.68;2.17;;;;;;;33.20;38.62;100896.31;2111101;28;20051;-73
2022/07/20 06:12:56;;;;;;;7.78;1.50;;;;;;;33.06;38.54;100905.53;2110481;28;20048;-74
2022/07/20 06:14:19;;;;;;;12.02;1.98;;;;;;;32.87;38.91;100905.19;2110974;28;20729;-74
2022/07/20 06:15:41;;;;;;;8.10;1.27;;;;;;;33.08;38.56;100906.28;2110405;28;20055;-74
2022/07/20 06:17:03;;;;;;;9.23;1.65;;;;;;;33.35;38.09;100907.91;2110511;28;20059;-73
2022/07/20 06:18:26;;;;;;;9.15;1.60;;;;;;;33.65;37.78;100902.81;2110588;28;20049;-73
2022/07/20 06:19:48;;;;;;;8.38;1.80;;;;;;;33.87;37.41;100902.03;2111156;28;20075;-73
2022/07/20 06:21:13;;;;;;;10.05;1.75;;;;;;;34.03;37.52;100907.13;2102259;28;20081;-73
2022/07/20 06:22:36;;;;;;;9.05;1.40;;;;;;;34.14;37.05;100909.88;2111197;28;20775;-73
2022/07/20 06:24:01;;;;;;;8.57;1.65;;;;;;;34.16;37.08;100902.41;2110667;28;20076;-73
2022/07/20 06:25:24;;;;;;;8.85;1.70;;;;;;;34.12;37.01;100914.63;2104664;28;20083;-73
2022/07/20 06:26:46;;;;;;;9.10;1.63;;;;;;;34.22;37.33;100904.69;2107932;28;20079;-74